Aérodrome :
LOGIN :

S'inscrire | Disclaimer

   EN    FR    IT 

 










Légende :    VFR   VFR Marginal   IFR   IFR Intensif   IFR Très Intensif
Visi : 
Plafond : 
>= 8 km
>= 3000ft
5 à 8 km
1000 à 3000 ft
1500m à 5 km
500 à 1000 ft
800 à 1500m
200 à 500 ft
< 800m
< 200 ft
Symboles :   Orages  Brouillard  Fortes neiges  Fortes précipitations  Vent > 20 kt
SIGMETs :   Divers  Orages  Givrage  Turbulence  Onde Orograph.  Cendres Volcan.






- Altitude de l'aérodrome : 80 ft
- Code IATA : LPL


EGGP - Liverpool John Lennon

DERNIER METAR :
  • 251550Z 30010KT 9999 VCSH FEW008 SCT028 SCT034CB 06/02 Q0993

METARs EXPIRÉS :
  • 251520Z 29009KT 9999 VCSH FEW018 SCT033CB 06/02 Q0993
  • 251450Z 29016KT 9999 VCSH FEW018 SCT032 SCT046CB 06/02 Q0994
  • 251420Z 28015KT 9999 VCSH FEW017 SCT028 SCT041CB 07/02 Q0994
  • 251350Z 28015KT 9999 VCSH FEW017 SCT028 SCT039CB 07/02 Q0994
  • 251320Z 28011KT 9999 8000E -SHRAGR FEW017 SCT028 SCT035CB 05/02 Q0995 RESHGR

TAF TAF EGGP
Valide du 25 à 12h jusqu'au 26 à 12h UTC


251103Z 2512/2612 25010KT 9999 FEW012 SCT030
TEMPO 2512/2519 7000 SHRA BKN012
PROB30
TEMPO 2512/2519 27018G30KT 2000 SHRASN +SHGS BKN006 BKN015CB
TEMPO 2519/2612 29018G30KT 2000 SHRASN +SHGS BKN006 BKN015CB
ATIS : +44 151 907 2000 (option 5 or ext 5150)
Météo : +44 871 750 5150



MET'MAP, la Météo Aéronautique d'un coup d'oeil ! - Copyright ORBIFLY Décembre 2007 - Disclaimer

ORBIFLY MET'MAP TEAM :

Programmation & Développement : Alexandra Zaïnal
Sur une idée originale de : Baudouin d'Aumeries
Assistance à la programmation : Marc-Olivier Méhu
Soutien technique & logistique : Manuel Goepfert

Contact : metmap@orbifly.com




SOURCES & CREDITS :

   NOAA